»·PEaware :: N147F KSNA-KMRY

N147F :: KSNA-KMRY

FLIGHT INFORMATION

Flight Status: Arrived
Operator: Privately registered:
United States
More flights under this callsign
Pilot: William B. (10095)
Aircraft: Unknown
(F406)
More flights by this aircraft type
Origin: KSNA John Wayne-Orange Co
United States
Destination: KMRY Monterey Peninsula
United States
More flights between these airports :: More routes between these airports
Route: +SXC V208 VTU RZS MQO BSR V111 SNS
File this flight plan on PilotEdge
Remarks: P3d V3.4 carenado fligth 1 gtn 750
Altitude:
(Current/Filed)
15,000ft
Speed:
(Current/Filed)
180kts
Departed: 04-Apr-17 04:06 PM
Arrived: 04-Apr-17 05:38 PM
Distance/Time
Traveled:
262nm/1:32
Distance/Time
To Go:
Arrived

Flight Plot

Page will automatically refresh every two minutes.


Map Options




Map Legend


Flown Route
Filed Route
Departure Airport
Arrival Airport
Navaid (VOR, NDB)
Fix

Horizontal Profiles

Position Reports

Time Latitude Longitude Heading Altitude Ground
Speed
04-Apr-17 15:46 33.670509 -117.874545 22 60ft 0kts
04-Apr-17 15:47 33.670512 -117.874543 22 60ft 0kts
04-Apr-17 15:48 33.670514 -117.874542 22 60ft 0kts
04-Apr-17 15:49 33.670514 -117.874542 22 60ft 0kts
04-Apr-17 15:50 33.670514 -117.874542 22 60ft 0kts
04-Apr-17 15:51 33.670514 -117.874542 22 60ft 0kts
04-Apr-17 15:52 33.670514 -117.874542 22 60ft 0kts
04-Apr-17 15:53 33.670514 -117.874542 22 60ft 0kts
04-Apr-17 15:54 33.670514 -117.874542 22 60ft 0kts
04-Apr-17 15:55 33.670514 -117.874542 22 60ft 0kts
04-Apr-17 15:56 33.670514 -117.874542 22 60ft 0kts
04-Apr-17 15:57 33.670514 -117.874542 22 60ft 0kts
04-Apr-17 15:58 33.670514 -117.874542 22 60ft 0kts
04-Apr-17 15:59 33.670514 -117.874542 22 60ft 0kts
04-Apr-17 16:00 33.670514 -117.874542 22 60ft 0kts
04-Apr-17 16:01 33.670514 -117.874542 22 60ft 0kts
04-Apr-17 16:02 33.670518 -117.874540 22 60ft 0kts
04-Apr-17 16:03 33.673086 -117.871988 30 60ft 10kts
04-Apr-17 16:04 33.678482 -117.868681 25 60ft 26kts
04-Apr-17 16:05 33.681173 -117.866407 117 60ft 0kts
04-Apr-17 16:06 33.681132 -117.866312 117 60ft 5kts
04-Apr-17 16:07 33.664541 -117.874319 191 492ft 137kts
04-Apr-17 16:08 33.621197 -117.880076 187 2240ft 161kts
04-Apr-17 16:09 33.572832 -117.887505 187 3764ft 184kts
04-Apr-17 16:10 33.521214 -117.896789 187 5119ft 197kts
04-Apr-17 16:11 33.467828 -117.923872 211 5907ft 205kts
04-Apr-17 16:12 33.422485 -117.961800 212 7607ft 190kts
04-Apr-17 16:13 33.379958 -117.996907 213 9540ft 187kts
04-Apr-17 16:14 33.330175 -118.035565 213 10214ft 225kts
04-Apr-17 16:15 33.274258 -118.079285 229 10064ft 250kts
04-Apr-17 16:16 33.235119 -118.146923 247 10020ft 245kts
04-Apr-17 16:17 33.251813 -118.216397 304 11051ft 208kts
04-Apr-17 16:18 33.282989 -118.270902 306 12538ft 192kts
04-Apr-17 16:19 33.313825 -118.322131 305 14028ft 189kts
04-Apr-17 16:20 33.347520 -118.376554 306 14377ft 223kts
04-Apr-17 16:21 33.383476 -118.434220 306 14996ft 219kts
04-Apr-17 16:22 33.421941 -118.493611 309 14999ft 226kts
04-Apr-17 16:23 33.458358 -118.548064 303 14997ft 201kts
04-Apr-17 16:24 33.494847 -118.597882 313 14999ft 196kts
04-Apr-17 16:25 33.533181 -118.644050 313 14999ft 195kts
04-Apr-17 16:26 33.570262 -118.691032 309 14998ft 194kts
04-Apr-17 16:27 33.605484 -118.740530 309 14998ft 194kts
04-Apr-17 16:28 33.640575 -118.789921 309 14999ft 196kts
04-Apr-17 16:29 33.677971 -118.842613 309 15002ft 213kts
04-Apr-17 16:30 33.716620 -118.897266 309 15001ft 216kts
04-Apr-17 16:31 33.755219 -118.952464 307 15002ft 215kts
04-Apr-17 16:32 33.792433 -119.009212 307 15002ft 215kts
04-Apr-17 16:33 33.848164 -119.029354 352 15004ft 224kts
04-Apr-17 16:34 33.910111 -119.036976 349 15005ft 224kts
04-Apr-17 16:35 33.957864 -119.073879 300 15010ft 216kts
04-Apr-17 16:36 33.989770 -119.135567 306 15009ft 216kts
04-Apr-17 16:37 34.029944 -119.189354 309 15009ft 215kts
04-Apr-17 16:38 34.068686 -119.244473 311 15012ft 219kts
04-Apr-17 16:39 34.112904 -119.296454 316 15002ft 224kts
04-Apr-17 16:40 34.159376 -119.346685 315 15005ft 224kts
04-Apr-17 16:41 34.203619 -119.400188 312 15005ft 224kts
04-Apr-17 16:42 34.246804 -119.454607 313 15007ft 224kts
04-Apr-17 16:43 34.291355 -119.507505 314 15008ft 224kts
04-Apr-17 16:44 34.335750 -119.560642 313 15008ft 224kts
04-Apr-17 16:45 34.379998 -119.614359 313 15007ft 225kts
04-Apr-17 16:46 34.424249 -119.667772 313 15005ft 225kts
04-Apr-17 16:47 34.468345 -119.721095 313 15003ft 225kts
04-Apr-17 16:48 34.512770 -119.774965 313 15003ft 225kts
04-Apr-17 16:49 34.557698 -119.828104 314 15003ft 226kts
04-Apr-17 16:50 34.603557 -119.880554 315 15003ft 226kts
04-Apr-17 16:51 34.644912 -119.937116 304 15008ft 226kts
04-Apr-17 16:52 34.682451 -119.999203 308 15001ft 226kts
04-Apr-17 16:53 34.724879 -120.055735 314 15002ft 227kts
04-Apr-17 16:54 34.770654 -120.108853 315 15005ft 227kts
04-Apr-17 16:55 34.814556 -120.163868 311 15006ft 226kts
04-Apr-17 16:56 34.855263 -120.222054 309 15008ft 226kts
04-Apr-17 16:57 34.896344 -120.280391 311 15010ft 226kts
04-Apr-17 16:58 34.939005 -120.336464 312 15011ft 226kts
04-Apr-17 16:59 34.981813 -120.392755 311 15011ft 226kts
04-Apr-17 17:00 35.023423 -120.449724 310 15010ft 226kts
04-Apr-17 17:01 35.065521 -120.506803 311 15013ft 226kts
04-Apr-17 17:02 35.107713 -120.563554 311 15012ft 226kts
04-Apr-17 17:03 35.149741 -120.620581 311 15004ft 226kts
04-Apr-17 17:04 35.184951 -120.668244 311 15003ft 226kts
04-Apr-17 17:05 35.233918 -120.734687 311 15018ft 227kts
04-Apr-17 17:06 35.269376 -120.783323 311 14996ft 228kts
04-Apr-17 17:07 35.332591 -120.829460 330 15002ft 229kts
04-Apr-17 17:08 35.378515 -120.862592 323 14996ft 227kts
04-Apr-17 17:09 35.429994 -120.907234 322 14994ft 226kts
04-Apr-17 17:10 35.489940 -120.959081 323 14990ft 226kts
04-Apr-17 17:11 35.532663 -120.995766 321 14991ft 226kts
04-Apr-17 17:12 35.578508 -121.039001 318 14964ft 227kts
04-Apr-17 17:13 35.626535 -121.089264 317 14965ft 227kts
04-Apr-17 17:14 35.675468 -121.140547 318 14958ft 228kts
04-Apr-17 17:15 35.725077 -121.188769 320 14961ft 227kts
04-Apr-17 17:16 35.774865 -121.236366 319 14960ft 226kts
04-Apr-17 17:17 35.824323 -121.286754 319 14961ft 232kts
04-Apr-17 17:18 35.874668 -121.336666 320 14964ft 233kts
04-Apr-17 17:19 35.925291 -121.386254 320 14964ft 232kts
04-Apr-17 17:20 35.976357 -121.437400 320 14962ft 234kts
04-Apr-17 17:21 36.027232 -121.487887 320 14984ft 233kts
04-Apr-17 17:22 36.078526 -121.539468 319 14964ft 236kts
04-Apr-17 17:23 36.130117 -121.590853 319 14985ft 235kts
04-Apr-17 17:24 36.184944 -121.635111 341 14993ft 239kts
04-Apr-17 17:25 36.248801 -121.617870 37 14997ft 255kts
04-Apr-17 17:26 36.311145 -121.614217 337 15001ft 236kts
04-Apr-17 17:27 36.374542 -121.629692 358 14199ft 221kts
04-Apr-17 17:28 36.434738 -121.624994 3 12197ft 213kts
04-Apr-17 17:29 36.493312 -121.617540 0 10201ft 211kts
04-Apr-17 17:30 36.546240 -121.622299 350 8201ft 178kts
04-Apr-17 17:31 36.570758 -121.585802 129 6338ft 165kts
04-Apr-17 17:32 36.540880 -121.601967 233 5935ft 148kts
04-Apr-17 17:33 36.532129 -121.655514 268 5134ft 156kts
04-Apr-17 17:34 36.540272 -121.707189 291 3515ft 138kts
04-Apr-17 17:35 36.553578 -121.746006 291 2153ft 123kts
04-Apr-17 17:36 36.566022 -121.783144 295 1336ft 109kts
04-Apr-17 17:37 36.576271 -121.812960 294 700ft 87kts
04-Apr-17 17:38 36.585070 -121.838804 295 212ft 67kts
04-Apr-17 17:39 36.588547 -121.850586 203 210ft 20kts

Navigation Log

Ident Type
Flight plan parsing failed, navigation log unavailable